createdAt,value
2023-03-23T00:00:00.171Z,9.5
2023-03-23T00:04:00.166Z,9.4
2023-03-23T00:08:00.146Z,9.6
2023-03-23T00:12:00.158Z,9.4
2023-03-23T00:16:00.186Z,9.4
2023-03-23T00:20:00.193Z,9.2
2023-03-23T00:24:00.168Z,8.9
2023-03-23T00:28:00.154Z,8.9
2023-03-23T00:32:00.176Z,8.7
2023-03-23T00:36:00.219Z,8.6
2023-03-23T00:40:00.186Z,8.6
2023-03-23T00:44:00.177Z,8.5
2023-03-23T00:48:00.164Z,8.4
2023-03-23T00:52:00.180Z,8.3
2023-03-23T00:56:00.186Z,8.2
2023-03-23T01:00:00.187Z,8.2
2023-03-23T01:04:00.165Z,8.3
2023-03-23T01:08:00.170Z,8.1
2023-03-23T01:12:00.171Z,8.1
2023-03-23T01:16:00.187Z,7.9
2023-03-23T01:20:00.159Z,7.8
2023-03-23T01:24:00.180Z,7.7
2023-03-23T01:28:00.185Z,7.6
2023-03-23T01:32:00.173Z,7.7
2023-03-23T01:36:00.235Z,7.6
2023-03-23T01:40:00.197Z,7.5
2023-03-23T01:44:00.166Z,7.5
2023-03-23T01:48:00.167Z,7.3
2023-03-23T01:52:00.183Z,7.2
2023-03-23T01:56:00.163Z,7.2
2023-03-23T02:00:00.218Z,7.2
2023-03-23T02:04:00.164Z,7.3
2023-03-23T02:08:00.184Z,7.3
2023-03-23T02:12:00.157Z,7.6
2023-03-23T02:16:00.175Z,7.5
2023-03-23T02:20:00.211Z,7.5
2023-03-23T02:24:00.195Z,7.6
2023-03-23T02:28:00.181Z,7.7
2023-03-23T02:32:00.187Z,7.6
2023-03-23T02:36:00.248Z,7.8
2023-03-23T02:40:00.188Z,8.0
2023-03-23T02:44:00.173Z,8.2
2023-03-23T02:48:00.166Z,8.8
2023-03-23T02:52:00.174Z,9.2
2023-03-23T02:56:00.192Z,9.5
2023-03-23T03:00:00.192Z,9.9
2023-03-23T03:04:00.160Z,10.0
2023-03-23T03:08:00.186Z,10.0
2023-03-23T03:12:00.155Z,10.4
2023-03-23T03:16:00.171Z,10.5
2023-03-23T03:20:00.186Z,10.6
2023-03-23T03:24:00.173Z,10.7
2023-03-23T03:28:00.186Z,10.5
2023-03-23T03:32:00.192Z,10.6
2023-03-23T03:36:00.278Z,10.7
2023-03-23T03:40:00.203Z,10.7
2023-03-23T03:44:00.206Z,10.6
2023-03-23T03:48:00.177Z,10.7
2023-03-23T03:52:00.173Z,10.6
2023-03-23T03:56:00.173Z,10.6
2023-03-23T04:00:00.178Z,10.9
2023-03-23T04:04:00.164Z,10.8
2023-03-23T04:08:09.586Z,10.7
2023-03-23T04:12:00.150Z,10.8
2023-03-23T04:16:07.117Z,10.8
2023-03-23T04:20:00.185Z,10.8
2023-03-23T04:24:00.185Z,10.9
2023-03-23T04:28:01.646Z,10.8
2023-03-23T04:32:00.165Z,10.6
2023-03-23T04:36:00.201Z,10.6
2023-03-23T04:40:00.214Z,10.4
2023-03-23T04:44:00.169Z,10.3
2023-03-23T04:48:00.158Z,10.1
2023-03-23T04:52:00.174Z,10.0
2023-03-23T04:56:00.167Z,10.0
2023-03-23T05:00:00.243Z,10.0
2023-03-23T05:04:00.202Z,10.1
2023-03-23T05:08:00.185Z,10.1
2023-03-23T05:12:00.195Z,10.2
2023-03-23T05:16:00.159Z,10.2
2023-03-23T05:20:00.155Z,10.5
2023-03-23T05:24:00.170Z,10.6
2023-03-23T05:28:00.159Z,10.5
2023-03-23T05:32:00.185Z,10.4
2023-03-23T05:36:00.237Z,10.6
2023-03-23T05:40:00.187Z,10.7
2023-03-23T05:44:00.162Z,10.8
2023-03-23T05:48:00.190Z,11.2
2023-03-23T05:52:00.178Z,11.2
2023-03-23T05:56:00.177Z,11.0
2023-03-23T06:00:00.274Z,10.9
2023-03-23T06:04:00.427Z,10.8
2023-03-23T06:08:00.172Z,10.7
2023-03-23T06:12:00.172Z,10.5
2023-03-23T06:16:00.169Z,10.3
2023-03-23T06:20:00.167Z,10.2
2023-03-23T06:24:00.168Z,10.0
2023-03-23T06:28:00.174Z,9.8
2023-03-23T06:32:00.224Z,9.8
2023-03-23T06:36:00.317Z,9.7
2023-03-23T06:40:00.161Z,9.6
2023-03-23T06:44:00.173Z,9.6
2023-03-23T06:48:00.171Z,9.6
2023-03-23T06:52:00.182Z,9.6
2023-03-23T06:56:00.204Z,9.6
2023-03-23T07:00:00.213Z,9.7
2023-03-23T07:04:00.175Z,9.7
2023-03-23T07:08:00.171Z,9.8
2023-03-23T07:12:00.182Z,10.0
2023-03-23T07:16:00.167Z,10.1
2023-03-23T07:20:00.238Z,10.1
2023-03-23T07:24:00.184Z,10.1
2023-03-23T07:28:00.203Z,10.2
2023-03-23T07:32:00.157Z,10.3
2023-03-23T07:36:00.278Z,10.3
2023-03-23T07:40:00.220Z,10.3
2023-03-23T07:44:00.186Z,10.4
2023-03-23T07:48:01.969Z,10.5
2023-03-23T07:52:00.204Z,10.6
2023-03-23T07:56:00.155Z,10.8
2023-03-23T08:00:00.178Z,10.9
2023-03-23T08:04:00.178Z,11.0
2023-03-23T08:08:00.203Z,11.1
2023-03-23T08:12:00.184Z,11.1
2023-03-23T08:16:00.170Z,11.2
2023-03-23T08:20:00.198Z,11.3
2023-03-23T08:24:00.147Z,11.5
2023-03-23T08:28:00.207Z,11.8
2023-03-23T08:32:00.147Z,12.3
2023-03-23T08:36:00.250Z,12.1
2023-03-23T08:40:00.251Z,11.8
2023-03-23T08:44:00.170Z,11.7
2023-03-23T08:48:00.181Z,11.6
2023-03-23T08:52:00.169Z,11.8
2023-03-23T08:56:00.168Z,11.9
2023-03-23T09:00:00.192Z,12.0
2023-03-23T09:04:00.169Z,12.2
2023-03-23T09:08:00.149Z,12.3
2023-03-23T09:12:00.172Z,12.3
2023-03-23T09:16:00.527Z,12.8
2023-03-23T09:20:00.168Z,13.1
2023-03-23T09:24:00.256Z,13.1
2023-03-23T09:28:00.161Z,14.1
2023-03-23T09:32:00.160Z,14.6
2023-03-23T09:36:00.240Z,15.0
2023-03-23T09:40:06.863Z,14.3
2023-03-23T09:44:00.183Z,13.9
2023-03-23T09:48:00.162Z,13.8
2023-03-23T09:52:00.165Z,14.0
2023-03-23T09:56:00.175Z,14.1
2023-03-23T10:00:00.244Z,14.3
2023-03-23T10:04:00.183Z,14.2
2023-03-23T10:08:00.176Z,14.7
2023-03-23T10:12:00.183Z,15.4
2023-03-23T10:16:00.179Z,15.2
2023-03-23T10:20:00.193Z,14.5
2023-03-23T10:24:00.163Z,14.4
2023-03-23T10:28:00.219Z,14.7
2023-03-23T10:32:00.181Z,14.9
2023-03-23T10:36:00.232Z,15.0
2023-03-23T10:40:00.212Z,14.7
2023-03-23T10:44:00.152Z,15.0
2023-03-23T10:48:00.161Z,14.9
2023-03-23T10:52:00.168Z,14.9
2023-03-23T10:56:00.908Z,14.6
2023-03-23T11:00:00.216Z,14.7
2023-03-23T11:04:00.165Z,14.7
2023-03-23T11:08:00.197Z,14.9
2023-03-23T11:12:02.551Z,15.0
2023-03-23T11:16:00.173Z,15.2
2023-03-23T11:20:00.179Z,15.2
2023-03-23T11:24:09.340Z,15.1
2023-03-23T11:28:00.171Z,15.2
2023-03-23T11:32:00.200Z,15.3
2023-03-23T11:36:00.199Z,15.1
2023-03-23T11:40:00.190Z,15.4
2023-03-23T11:44:00.162Z,15.3
2023-03-23T11:48:00.183Z,15.5
2023-03-23T11:52:00.162Z,15.8
2023-03-23T11:56:00.231Z,16.0
2023-03-23T12:00:00.220Z,15.7
2023-03-23T12:04:00.178Z,16.0
2023-03-23T12:08:00.200Z,16.3
2023-03-23T12:12:00.173Z,16.0
2023-03-23T12:16:00.162Z,16.0
2023-03-23T12:20:00.237Z,16.0
2023-03-23T12:24:01.470Z,16.8
2023-03-23T12:28:00.200Z,16.5
2023-03-23T12:32:00.234Z,16.5
2023-03-23T12:36:00.212Z,16.8
2023-03-23T12:40:00.182Z,17.0
2023-03-23T12:44:00.197Z,17.0
2023-03-23T12:48:00.187Z,16.8
2023-03-23T12:52:00.156Z,16.4
2023-03-23T12:56:00.181Z,16.3
2023-03-23T13:00:00.204Z,16.3
2023-03-23T13:04:00.168Z,16.3
2023-03-23T13:08:00.233Z,16.3
2023-03-23T13:12:00.213Z,16.3
2023-03-23T13:16:00.180Z,16.3
2023-03-23T13:20:00.224Z,16.3
2023-03-23T13:24:00.197Z,16.3
2023-03-23T13:28:00.177Z,16.3
2023-03-23T13:32:00.186Z,18.2
2023-03-23T13:40:00.258Z,17.9
2023-03-23T13:44:00.189Z,17.4
2023-03-23T13:48:00.169Z,16.7
2023-03-23T13:52:00.189Z,16.8
2023-03-23T13:56:03.381Z,16.7
2023-03-23T14:00:00.181Z,16.6
2023-03-23T14:04:00.181Z,16.8
2023-03-23T14:08:00.191Z,17.7
2023-03-23T14:12:00.170Z,17.7
2023-03-23T14:16:00.181Z,17.7
2023-03-23T14:20:00.205Z,17.7
2023-03-23T14:24:00.183Z,17.7
2023-03-23T14:28:00.171Z,18.0
2023-03-23T14:32:00.158Z,18.0
2023-03-23T14:36:00.173Z,16.4
2023-03-23T14:40:00.177Z,16.4
2023-03-23T14:44:00.183Z,16.4
2023-03-23T14:48:00.160Z,16.4
2023-03-23T14:52:00.158Z,16.4
2023-03-23T14:56:00.160Z,16.4
2023-03-23T15:00:00.166Z,16.4
2023-03-23T15:04:00.156Z,16.4
2023-03-23T15:08:00.149Z,16.4
2023-03-23T15:12:00.170Z,16.4
2023-03-23T15:16:00.207Z,16.4
2023-03-23T15:20:00.154Z,16.4
2023-03-23T15:24:00.180Z,16.4
2023-03-23T15:28:00.185Z,15.5
2023-03-23T15:32:00.173Z,15.5
2023-03-23T15:36:00.189Z,15.5
2023-03-23T15:40:00.213Z,15.5
2023-03-23T15:44:00.195Z,15.5
2023-03-23T15:48:00.159Z,15.5
2023-03-23T15:52:00.181Z,15.5
2023-03-23T15:56:00.232Z,15.5
2023-03-23T16:00:00.199Z,15.5
2023-03-23T16:04:00.216Z,15.5
2023-03-23T16:08:00.171Z,15.4
2023-03-23T16:12:00.175Z,15.4
2023-03-23T16:16:00.171Z,15.2
2023-03-23T16:20:00.194Z,15.1
2023-03-23T16:24:00.181Z,15.1
2023-03-23T16:28:00.191Z,14.8
2023-03-23T16:32:00.198Z,14.5
2023-03-23T16:36:00.207Z,14.5
2023-03-23T16:40:00.243Z,14.5
2023-03-23T16:44:00.157Z,14.5
2023-03-23T16:48:00.229Z,14.5
2023-03-23T16:52:00.167Z,14.1
2023-03-23T16:56:00.182Z,14.1
2023-03-23T17:00:00.181Z,14.0
2023-03-23T17:04:00.238Z,13.5
2023-03-23T17:08:00.159Z,13.5
2023-03-23T17:12:00.171Z,13.5
2023-03-23T17:16:00.180Z,13.5
2023-03-23T17:20:00.227Z,13.2
2023-03-23T17:24:00.172Z,13.2
2023-03-23T17:28:05.934Z,13.2
2023-03-23T17:32:00.187Z,13.1
2023-03-23T17:36:00.187Z,13.2
2023-03-23T17:40:00.206Z,13.2
2023-03-23T17:44:00.154Z,13.2
2023-03-23T17:48:00.293Z,13.4
2023-03-23T17:52:00.159Z,13.4
2023-03-23T17:56:00.304Z,13.4
2023-03-23T18:00:00.207Z,13.3
2023-03-23T18:04:00.162Z,13.2
2023-03-23T18:08:00.259Z,13.3
2023-03-23T18:12:00.195Z,13.2
2023-03-23T18:16:00.174Z,13.2
2023-03-23T18:20:00.179Z,13.0
2023-03-23T18:24:00.361Z,12.9
2023-03-23T18:28:04.672Z,12.6
2023-03-23T18:32:00.249Z,12.5
2023-03-23T18:36:00.214Z,12.3
2023-03-23T18:40:00.196Z,12.2
2023-03-23T18:44:00.187Z,12.2
2023-03-23T18:48:00.213Z,12.0
2023-03-23T18:52:00.151Z,12.0
2023-03-23T18:56:00.159Z,12.0
2023-03-23T19:00:00.241Z,12.0
2023-03-23T19:04:00.184Z,11.9
2023-03-23T19:08:00.218Z,11.8
2023-03-23T19:12:00.159Z,11.8
2023-03-23T19:16:00.281Z,11.7
2023-03-23T19:20:00.673Z,11.6
2023-03-23T19:24:00.198Z,11.5
2023-03-23T19:28:50.027Z,11.5
2023-03-23T19:32:00.184Z,11.4
2023-03-23T19:36:09.243Z,11.4
2023-03-23T19:40:04.672Z,11.3
2023-03-23T19:44:00.152Z,11.3
2023-03-23T19:48:00.275Z,11.2
2023-03-23T19:52:07.849Z,11.2
2023-03-23T19:56:01.766Z,11.2
2023-03-23T20:00:00.154Z,11.1
2023-03-23T20:04:00.619Z,11.1
2023-03-23T20:08:00.176Z,11.1
2023-03-23T20:16:01.016Z,10.9
2023-03-23T20:20:00.525Z,10.8
2023-03-23T20:24:00.560Z,10.8
2023-03-23T20:28:00.539Z,10.7
2023-03-23T20:32:00.562Z,10.6
2023-03-23T20:36:00.559Z,10.3
2023-03-23T20:40:00.542Z,10.2
2023-03-23T20:44:00.545Z,10.0
2023-03-23T20:48:00.584Z,10.1
2023-03-23T20:52:00.572Z,10.1
2023-03-23T20:56:00.518Z,10.0
2023-03-23T21:00:00.563Z,10.0
2023-03-23T21:04:00.539Z,9.9
2023-03-23T21:08:00.547Z,10.0
2023-03-23T21:12:00.550Z,9.7
2023-03-23T21:16:00.542Z,9.6
2023-03-23T21:20:00.535Z,9.5
2023-03-23T21:24:00.562Z,9.4
2023-03-23T21:28:00.525Z,9.4
2023-03-23T21:32:08.319Z,9.4
2023-03-23T21:36:00.582Z,9.5
2023-03-23T21:40:00.541Z,9.4
2023-03-23T21:44:00.558Z,9.4
2023-03-23T21:48:00.555Z,9.3
2023-03-23T21:52:00.538Z,9.2
2023-03-23T21:56:00.557Z,9.1
2023-03-23T22:00:00.532Z,8.9
2023-03-23T22:04:00.565Z,8.8
2023-03-23T22:08:00.537Z,8.8
2023-03-23T22:12:00.559Z,8.5
2023-03-23T22:16:00.594Z,8.3
2023-03-23T22:20:00.533Z,8.3
2023-03-23T22:24:00.568Z,8.1
2023-03-23T22:28:00.551Z,8.1
2023-03-23T22:32:00.564Z,8.0
2023-03-23T22:36:00.564Z,7.9
2023-03-23T22:40:00.579Z,7.9
2023-03-23T22:44:00.556Z,7.8
2023-03-23T22:48:00.657Z,7.7
2023-03-23T22:52:00.575Z,7.7
2023-03-23T22:56:00.595Z,7.5
2023-03-23T23:00:00.555Z,7.5
2023-03-23T23:04:00.588Z,7.5
2023-03-23T23:08:00.581Z,7.4
2023-03-23T23:12:00.593Z,7.3
2023-03-23T23:16:00.570Z,7.3
2023-03-23T23:20:00.543Z,7.3
2023-03-23T23:24:00.583Z,7.2
2023-03-23T23:28:00.543Z,7.1
2023-03-23T23:32:00.624Z,7.1
2023-03-23T23:36:00.623Z,7.2
2023-03-23T23:40:00.581Z,7.2
2023-03-23T23:44:00.556Z,7.2
2023-03-23T23:48:00.612Z,7.4
2023-03-23T23:52:00.842Z,7.4
2023-03-23T23:56:00.559Z,7.4
